sensor_id;sensor_type;location;lat;lon;timestamp;temperature;humidity
37560;DHT22;23398;50.928;7.084;2023-11-21T00:00:44;13.30;91.20
37560;DHT22;23398;50.928;7.084;2023-11-21T00:03:11;13.30;91.20
37560;DHT22;23398;50.928;7.084;2023-11-21T00:05:40;13.20;91.00
37560;DHT22;23398;50.928;7.084;2023-11-21T00:08:07;13.20;90.80
37560;DHT22;23398;50.928;7.084;2023-11-21T00:10:33;13.20;90.70
37560;DHT22;23398;50.928;7.084;2023-11-21T00:12:59;13.10;90.70
37560;DHT22;23398;50.928;7.084;2023-11-21T00:15:24;13.10;90.80
37560;DHT22;23398;50.928;7.084;2023-11-21T00:17:51;13.10;90.90
37560;DHT22;23398;50.928;7.084;2023-11-21T00:20:17;13.00;91.00
37560;DHT22;23398;50.928;7.084;2023-11-21T00:22:43;13.00;91.10
37560;DHT22;23398;50.928;7.084;2023-11-21T00:25:08;13.00;91.10
37560;DHT22;23398;50.928;7.084;2023-11-21T00:27:35;13.00;91.10
37560;DHT22;23398;50.928;7.084;2023-11-21T00:30:01;13.00;91.10
37560;DHT22;23398;50.928;7.084;2023-11-21T00:32:27;12.90;90.90
37560;DHT22;23398;50.928;7.084;2023-11-21T00:34:52;12.90;90.90
37560;DHT22;23398;50.928;7.084;2023-11-21T00:37:20;12.90;90.90
37560;DHT22;23398;50.928;7.084;2023-11-21T00:39:45;12.90;91.00
37560;DHT22;23398;50.928;7.084;2023-11-21T00:42:11;12.80;90.90
37560;DHT22;23398;50.928;7.084;2023-11-21T00:44:38;12.80;90.70
37560;DHT22;23398;50.928;7.084;2023-11-21T00:47:04;12.80;90.70
37560;DHT22;23398;50.928;7.084;2023-11-21T00:49:30;12.80;90.60
37560;DHT22;23398;50.928;7.084;2023-11-21T00:51:56;12.70;90.50
37560;DHT22;23398;50.928;7.084;2023-11-21T00:54:23;12.70;90.50
37560;DHT22;23398;50.928;7.084;2023-11-21T00:56:49;12.60;90.50
37560;DHT22;23398;50.928;7.084;2023-11-21T00:59:14;12.60;90.40
37560;DHT22;23398;50.928;7.084;2023-11-21T01:01:40;12.50;90.10
37560;DHT22;23398;50.928;7.084;2023-11-21T01:04:06;12.50;89.90
37560;DHT22;23398;50.928;7.084;2023-11-21T01:06:32;12.40;89.60
37560;DHT22;23398;50.928;7.084;2023-11-21T01:08:58;12.30;90.00
37560;DHT22;23398;50.928;7.084;2023-11-21T01:11:24;12.30;90.30
37560;DHT22;23398;50.928;7.084;2023-11-21T01:13:49;12.20;90.30
37560;DHT22;23398;50.928;7.084;2023-11-21T01:16:15;12.20;90.30
37560;DHT22;23398;50.928;7.084;2023-11-21T01:18:40;12.20;90.60
37560;DHT22;23398;50.928;7.084;2023-11-21T01:21:06;12.10;90.80
37560;DHT22;23398;50.928;7.084;2023-11-21T01:23:33;12.10;91.10
37560;DHT22;23398;50.928;7.084;2023-11-21T01:25:58;12.10;91.20
37560;DHT22;23398;50.928;7.084;2023-11-21T01:28:24;12.00;91.30
37560;DHT22;23398;50.928;7.084;2023-11-21T01:30:50;12.00;91.20
37560;DHT22;23398;50.928;7.084;2023-11-21T01:33:15;12.00;91.00
37560;DHT22;23398;50.928;7.084;2023-11-21T01:35:44;11.90;90.80
37560;DHT22;23398;50.928;7.084;2023-11-21T01:38:11;11.90;90.70
37560;DHT22;23398;50.928;7.084;2023-11-21T01:40:37;11.80;90.60
37560;DHT22;23398;50.928;7.084;2023-11-21T01:43:03;11.70;90.90
37560;DHT22;23398;50.928;7.084;2023-11-21T01:45:29;11.70;91.30
37560;DHT22;23398;50.928;7.084;2023-11-21T01:47:56;11.70;91.50
37560;DHT22;23398;50.928;7.084;2023-11-21T01:50:24;11.70;91.70
37560;DHT22;23398;50.928;7.084;2023-11-21T01:52:50;11.60;92.00
37560;DHT22;23398;50.928;7.084;2023-11-21T01:55:17;11.70;92.20
37560;DHT22;23398;50.928;7.084;2023-11-21T01:57:44;11.60;92.10
37560;DHT22;23398;50.928;7.084;2023-11-21T02:00:10;11.60;91.90
37560;DHT22;23398;50.928;7.084;2023-11-21T02:02:45;11.70;91.70
37560;DHT22;23398;50.928;7.084;2023-11-21T02:05:13;11.60;91.70
37560;DHT22;23398;50.928;7.084;2023-11-21T02:07:40;11.60;91.70
37560;DHT22;23398;50.928;7.084;2023-11-21T02:10:07;11.50;91.60
37560;DHT22;23398;50.928;7.084;2023-11-21T02:12:33;11.60;91.90
37560;DHT22;23398;50.928;7.084;2023-11-21T02:14:58;11.50;91.50
37560;DHT22;23398;50.928;7.084;2023-11-21T02:17:24;11.50;91.80
37560;DHT22;23398;50.928;7.084;2023-11-21T02:19:50;11.50;92.10
37560;DHT22;23398;50.928;7.084;2023-11-21T02:22:17;11.50;92.20
37560;DHT22;23398;50.928;7.084;2023-11-21T02:24:45;11.50;92.00
37560;DHT22;23398;50.928;7.084;2023-11-21T02:27:12;11.50;91.70
37560;DHT22;23398;50.928;7.084;2023-11-21T02:29:38;11.50;91.10
37560;DHT22;23398;50.928;7.084;2023-11-21T02:32:04;11.40;90.70
37560;DHT22;23398;50.928;7.084;2023-11-21T02:34:29;11.40;90.70
37560;DHT22;23398;50.928;7.084;2023-11-21T02:36:55;11.40;90.90
37560;DHT22;23398;50.928;7.084;2023-11-21T02:39:23;11.30;91.00
37560;DHT22;23398;50.928;7.084;2023-11-21T02:41:49;11.30;91.00
37560;DHT22;23398;50.928;7.084;2023-11-21T02:44:15;11.20;91.00
37560;DHT22;23398;50.928;7.084;2023-11-21T02:46:41;11.20;91.20
37560;DHT22;23398;50.928;7.084;2023-11-21T02:49:06;11.20;91.50
37560;DHT22;23398;50.928;7.084;2023-11-21T02:51:33;11.20;92.00
37560;DHT22;23398;50.928;7.084;2023-11-21T02:53:59;11.20;92.40
37560;DHT22;23398;50.928;7.084;2023-11-21T02:56:26;11.10;92.50
37560;DHT22;23398;50.928;7.084;2023-11-21T02:58:52;11.20;92.60
37560;DHT22;23398;50.928;7.084;2023-11-21T03:01:18;11.20;92.50
37560;DHT22;23398;50.928;7.084;2023-11-21T03:03:43;11.20;92.60
37560;DHT22;23398;50.928;7.084;2023-11-21T03:06:09;11.30;92.80
37560;DHT22;23398;50.928;7.084;2023-11-21T03:08:35;11.30;92.90
37560;DHT22;23398;50.928;7.084;2023-11-21T03:11:01;11.30;93.10
37560;DHT22;23398;50.928;7.084;2023-11-21T03:13:28;11.30;93.20
37560;DHT22;23398;50.928;7.084;2023-11-21T03:15:54;11.30;93.30
37560;DHT22;23398;50.928;7.084;2023-11-21T03:18:20;11.40;93.50
37560;DHT22;23398;50.928;7.084;2023-11-21T03:20:47;11.40;93.60
37560;DHT22;23398;50.928;7.084;2023-11-21T03:23:13;11.50;93.70
37560;DHT22;23398;50.928;7.084;2023-11-21T03:25:38;11.50;93.70
37560;DHT22;23398;50.928;7.084;2023-11-21T03:28:04;11.50;93.80
37560;DHT22;23398;50.928;7.084;2023-11-21T03:30:30;11.60;93.90
37560;DHT22;23398;50.928;7.084;2023-11-21T03:32:56;11.60;93.90
37560;DHT22;23398;50.928;7.084;2023-11-21T03:35:22;11.60;93.90
37560;DHT22;23398;50.928;7.084;2023-11-21T03:37:47;11.70;94.00
37560;DHT22;23398;50.928;7.084;2023-11-21T03:40:13;11.70;93.90
37560;DHT22;23398;50.928;7.084;2023-11-21T03:42:39;11.80;94.00
37560;DHT22;23398;50.928;7.084;2023-11-21T03:45:08;11.80;94.00
37560;DHT22;23398;50.928;7.084;2023-11-21T03:47:34;11.90;94.00
37560;DHT22;23398;50.928;7.084;2023-11-21T03:50:00;11.90;93.90
37560;DHT22;23398;50.928;7.084;2023-11-21T03:52:26;11.90;93.80
37560;DHT22;23398;50.928;7.084;2023-11-21T03:54:53;12.00;93.80
37560;DHT22;23398;50.928;7.084;2023-11-21T03:57:20;12.00;93.70
37560;DHT22;23398;50.928;7.084;2023-11-21T03:59:46;12.00;93.60
37560;DHT22;23398;50.928;7.084;2023-11-21T04:02:12;12.20;93.70
37560;DHT22;23398;50.928;7.084;2023-11-21T04:04:37;12.10;93.60
37560;DHT22;23398;50.928;7.084;2023-11-21T04:07:04;12.10;93.50
37560;DHT22;23398;50.928;7.084;2023-11-21T04:09:30;12.10;93.40
37560;DHT22;23398;50.928;7.084;2023-11-21T04:11:55;12.10;93.20
37560;DHT22;23398;50.928;7.084;2023-11-21T04:14:22;12.20;93.20
37560;DHT22;23398;50.928;7.084;2023-11-21T04:16:47;12.20;93.10
37560;DHT22;23398;50.928;7.084;2023-11-21T04:19:14;12.20;93.00
37560;DHT22;23398;50.928;7.084;2023-11-21T04:21:43;12.20;93.00
37560;DHT22;23398;50.928;7.084;2023-11-21T04:24:08;12.20;93.00
37560;DHT22;23398;50.928;7.084;2023-11-21T04:26:34;12.20;93.00
37560;DHT22;23398;50.928;7.084;2023-11-21T04:29:00;12.20;93.00
37560;DHT22;23398;50.928;7.084;2023-11-21T04:31:25;12.20;93.00
37560;DHT22;23398;50.928;7.084;2023-11-21T04:33:51;12.20;93.00
37560;DHT22;23398;50.928;7.084;2023-11-21T04:36:16;12.20;92.90
37560;DHT22;23398;50.928;7.084;2023-11-21T04:38:42;12.20;92.90
37560;DHT22;23398;50.928;7.084;2023-11-21T04:41:08;12.30;92.90
37560;DHT22;23398;50.928;7.084;2023-11-21T04:43:33;12.30;92.90
37560;DHT22;23398;50.928;7.084;2023-11-21T04:45:59;12.30;92.70
37560;DHT22;23398;50.928;7.084;2023-11-21T04:48:25;12.20;92.60
37560;DHT22;23398;50.928;7.084;2023-11-21T04:50:51;12.20;92.60
37560;DHT22;23398;50.928;7.084;2023-11-21T04:53:17;12.20;92.60
37560;DHT22;23398;50.928;7.084;2023-11-21T04:55:43;12.20;92.70
37560;DHT22;23398;50.928;7.084;2023-11-21T04:58:09;12.20;92.60
37560;DHT22;23398;50.928;7.084;2023-11-21T05:00:35;12.20;92.60
37560;DHT22;23398;50.928;7.084;2023-11-21T05:03:02;12.20;92.60
37560;DHT22;23398;50.928;7.084;2023-11-21T05:05:29;12.20;92.60
37560;DHT22;23398;50.928;7.084;2023-11-21T05:07:55;12.20;92.60
37560;DHT22;23398;50.928;7.084;2023-11-21T05:10:20;12.20;92.60
37560;DHT22;23398;50.928;7.084;2023-11-21T05:12:48;12.20;92.60
37560;DHT22;23398;50.928;7.084;2023-11-21T05:15:15;12.20;92.70
37560;DHT22;23398;50.928;7.084;2023-11-21T05:17:42;12.20;92.60
37560;DHT22;23398;50.928;7.084;2023-11-21T05:20:10;12.20;92.60
37560;DHT22;23398;50.928;7.084;2023-11-21T05:22:37;12.20;92.60
37560;DHT22;23398;50.928;7.084;2023-11-21T05:25:03;12.20;92.70
37560;DHT22;23398;50.928;7.084;2023-11-21T05:27:29;12.30;92.70
37560;DHT22;23398;50.928;7.084;2023-11-21T05:29:56;12.20;92.60
37560;DHT22;23398;50.928;7.084;2023-11-21T05:32:23;12.20;92.60
37560;DHT22;23398;50.928;7.084;2023-11-21T05:34:49;12.30;92.60
37560;DHT22;23398;50.928;7.084;2023-11-21T05:37:14;12.30;92.70
37560;DHT22;23398;50.928;7.084;2023-11-21T05:39:40;12.30;92.70
37560;DHT22;23398;50.928;7.084;2023-11-21T05:42:06;12.30;92.70
37560;DHT22;23398;50.928;7.084;2023-11-21T05:44:31;12.30;92.70
37560;DHT22;23398;50.928;7.084;2023-11-21T05:46:57;12.30;92.80
37560;DHT22;23398;50.928;7.084;2023-11-21T05:49:24;12.40;93.00
37560;DHT22;23398;50.928;7.084;2023-11-21T05:51:53;12.40;93.00
37560;DHT22;23398;50.928;7.084;2023-11-21T05:54:19;12.40;93.10
37560;DHT22;23398;50.928;7.084;2023-11-21T05:56:45;12.40;93.10
37560;DHT22;23398;50.928;7.084;2023-11-21T05:59:12;12.40;93.10
37560;DHT22;23398;50.928;7.084;2023-11-21T06:01:37;12.50;93.20
37560;DHT22;23398;50.928;7.084;2023-11-21T06:04:04;12.50;93.20
37560;DHT22;23398;50.928;7.084;2023-11-21T06:06:30;12.50;93.10
37560;DHT22;23398;50.928;7.084;2023-11-21T06:08:56;12.50;93.00
37560;DHT22;23398;50.928;7.084;2023-11-21T06:11:22;12.50;93.00
37560;DHT22;23398;50.928;7.084;2023-11-21T06:13:48;12.60;93.00
37560;DHT22;23398;50.928;7.084;2023-11-21T06:16:15;12.60;92.90
37560;DHT22;23398;50.928;7.084;2023-11-21T06:18:42;12.60;92.80
37560;DHT22;23398;50.928;7.084;2023-11-21T06:21:11;12.60;92.70
37560;DHT22;23398;50.928;7.084;2023-11-21T06:23:37;12.70;92.70
37560;DHT22;23398;50.928;7.084;2023-11-21T06:26:03;12.70;92.60
37560;DHT22;23398;50.928;7.084;2023-11-21T06:28:30;12.70;92.60
37560;DHT22;23398;50.928;7.084;2023-11-21T06:30:56;12.70;92.50
37560;DHT22;23398;50.928;7.084;2023-11-21T06:33:23;12.70;92.50
37560;DHT22;23398;50.928;7.084;2023-11-21T06:35:49;12.70;92.20
37560;DHT22;23398;50.928;7.084;2023-11-21T06:38:15;12.70;92.10
37560;DHT22;23398;50.928;7.084;2023-11-21T06:40:40;12.70;92.00
37560;DHT22;23398;50.928;7.084;2023-11-21T06:43:06;12.70;91.90
37560;DHT22;23398;50.928;7.084;2023-11-21T06:45:33;12.70;91.90
37560;DHT22;23398;50.928;7.084;2023-11-21T06:47:59;12.60;92.00
37560;DHT22;23398;50.928;7.084;2023-11-21T06:50:25;12.60;92.10
37560;DHT22;23398;50.928;7.084;2023-11-21T06:52:51;12.60;92.20
37560;DHT22;23398;50.928;7.084;2023-11-21T06:55:16;12.60;92.30
37560;DHT22;23398;50.928;7.084;2023-11-21T06:57:42;12.60;92.40
37560;DHT22;23398;50.928;7.084;2023-11-21T07:00:08;12.60;92.50
37560;DHT22;23398;50.928;7.084;2023-11-21T07:02:34;12.60;92.50
37560;DHT22;23398;50.928;7.084;2023-11-21T07:05:00;12.60;92.50
37560;DHT22;23398;50.928;7.084;2023-11-21T07:07:27;12.60;92.60
37560;DHT22;23398;50.928;7.084;2023-11-21T07:09:53;12.60;92.60
37560;DHT22;23398;50.928;7.084;2023-11-21T07:12:18;12.60;92.60
37560;DHT22;23398;50.928;7.084;2023-11-21T07:14:44;12.70;92.70
37560;DHT22;23398;50.928;7.084;2023-11-21T07:17:11;12.70;92.70
37560;DHT22;23398;50.928;7.084;2023-11-21T07:19:39;12.70;92.80
37560;DHT22;23398;50.928;7.084;2023-11-21T07:22:06;12.70;92.60
37560;DHT22;23398;50.928;7.084;2023-11-21T07:24:34;12.70;92.70
37560;DHT22;23398;50.928;7.084;2023-11-21T07:27:00;12.70;92.60
37560;DHT22;23398;50.928;7.084;2023-11-21T07:29:26;12.70;92.50
37560;DHT22;23398;50.928;7.084;2023-11-21T07:31:55;12.70;92.40
37560;DHT22;23398;50.928;7.084;2023-11-21T07:34:21;12.70;92.40
37560;DHT22;23398;50.928;7.084;2023-11-21T07:36:47;12.80;92.50
37560;DHT22;23398;50.928;7.084;2023-11-21T07:39:12;12.80;92.60
37560;DHT22;23398;50.928;7.084;2023-11-21T07:41:41;12.80;92.60
37560;DHT22;23398;50.928;7.084;2023-11-21T07:44:10;12.80;92.70
37560;DHT22;23398;50.928;7.084;2023-11-21T07:46:36;12.80;92.70
37560;DHT22;23398;50.928;7.084;2023-11-21T07:49:01;12.90;92.80
37560;DHT22;23398;50.928;7.084;2023-11-21T07:51:27;12.90;92.70
37560;DHT22;23398;50.928;7.084;2023-11-21T07:53:52;12.90;92.70
37560;DHT22;23398;50.928;7.084;2023-11-21T07:56:18;13.00;92.80
37560;DHT22;23398;50.928;7.084;2023-11-21T07:58:43;13.00;92.70
37560;DHT22;23398;50.928;7.084;2023-11-21T08:01:10;13.00;92.70
37560;DHT22;23398;50.928;7.084;2023-11-21T08:03:35;13.10;92.80
37560;DHT22;23398;50.928;7.084;2023-11-21T08:06:01;13.10;92.70
37560;DHT22;23398;50.928;7.084;2023-11-21T08:08:28;13.10;92.60
37560;DHT22;23398;50.928;7.084;2023-11-21T08:10:54;13.20;92.50
37560;DHT22;23398;50.928;7.084;2023-11-21T08:13:27;13.20;92.50
37560;DHT22;23398;50.928;7.084;2023-11-21T08:15:57;13.30;92.50
37560;DHT22;23398;50.928;7.084;2023-11-21T08:18:27;13.30;92.50
37560;DHT22;23398;50.928;7.084;2023-11-21T08:20:54;13.40;92.50
37560;DHT22;23398;50.928;7.084;2023-11-21T08:23:20;13.40;92.50
37560;DHT22;23398;50.928;7.084;2023-11-21T08:25:46;13.50;92.70
37560;DHT22;23398;50.928;7.084;2023-11-21T08:28:13;13.50;92.70
37560;DHT22;23398;50.928;7.084;2023-11-21T08:30:41;13.60;92.80
37560;DHT22;23398;50.928;7.084;2023-11-21T08:33:07;13.60;92.70
37560;DHT22;23398;50.928;7.084;2023-11-21T08:35:34;13.70;92.90
37560;DHT22;23398;50.928;7.084;2023-11-21T08:38:00;13.90;92.90
37560;DHT22;23398;50.928;7.084;2023-11-21T08:40:25;13.90;92.50
37560;DHT22;23398;50.928;7.084;2023-11-21T08:42:51;14.00;92.20
37560;DHT22;23398;50.928;7.084;2023-11-21T08:45:21;14.00;92.00
37560;DHT22;23398;50.928;7.084;2023-11-21T08:47:47;14.10;91.80
37560;DHT22;23398;50.928;7.084;2023-11-21T08:50:13;14.20;91.70
37560;DHT22;23398;50.928;7.084;2023-11-21T08:52:40;14.20;91.70
37560;DHT22;23398;50.928;7.084;2023-11-21T08:55:06;14.30;91.60
37560;DHT22;23398;50.928;7.084;2023-11-21T08:57:38;14.30;91.20
37560;DHT22;23398;50.928;7.084;2023-11-21T09:00:06;14.40;91.10
37560;DHT22;23398;50.928;7.084;2023-11-21T09:02:33;14.40;91.20
37560;DHT22;23398;50.928;7.084;2023-11-21T09:05:00;14.40;91.40
37560;DHT22;23398;50.928;7.084;2023-11-21T09:07:28;14.50;91.10
37560;DHT22;23398;50.928;7.084;2023-11-21T09:09:54;14.50;90.90
37560;DHT22;23398;50.928;7.084;2023-11-21T09:12:20;14.50;90.60
37560;DHT22;23398;50.928;7.084;2023-11-21T09:14:46;14.60;90.30
37560;DHT22;23398;50.928;7.084;2023-11-21T09:17:11;14.60;90.10
37560;DHT22;23398;50.928;7.084;2023-11-21T09:19:38;14.70;90.00
37560;DHT22;23398;50.928;7.084;2023-11-21T09:22:04;14.70;89.70
37560;DHT22;23398;50.928;7.084;2023-11-21T09:24:31;14.80;89.30
37560;DHT22;23398;50.928;7.084;2023-11-21T09:26:56;14.80;89.10
37560;DHT22;23398;50.928;7.084;2023-11-21T09:29:22;14.80;89.00
37560;DHT22;23398;50.928;7.084;2023-11-21T09:31:48;14.80;88.90
37560;DHT22;23398;50.928;7.084;2023-11-21T09:34:16;14.80;88.80
37560;DHT22;23398;50.928;7.084;2023-11-21T09:36:45;14.90;88.50
37560;DHT22;23398;50.928;7.084;2023-11-21T09:39:10;14.90;88.30
37560;DHT22;23398;50.928;7.084;2023-11-21T09:41:42;14.90;88.00
37560;DHT22;23398;50.928;7.084;2023-11-21T09:44:13;15.00;87.80
37560;DHT22;23398;50.928;7.084;2023-11-21T09:46:41;15.00;87.40
37560;DHT22;23398;50.928;7.084;2023-11-21T09:49:09;15.00;87.00
37560;DHT22;23398;50.928;7.084;2023-11-21T09:51:40;15.00;87.20
37560;DHT22;23398;50.928;7.084;2023-11-21T09:54:08;15.00;87.10
37560;DHT22;23398;50.928;7.084;2023-11-21T09:56:35;15.00;87.00
37560;DHT22;23398;50.928;7.084;2023-11-21T09:59:03;15.10;86.80
37560;DHT22;23398;50.928;7.084;2023-11-21T10:01:33;15.10;86.40
37560;DHT22;23398;50.928;7.084;2023-11-21T10:04:00;15.10;86.10
37560;DHT22;23398;50.928;7.084;2023-11-21T10:06:26;15.10;86.10
37560;DHT22;23398;50.928;7.084;2023-11-21T10:08:53;15.10;86.00
37560;DHT22;23398;50.928;7.084;2023-11-21T10:11:19;15.20;86.30
37560;DHT22;23398;50.928;7.084;2023-11-21T10:13:47;15.20;86.50
37560;DHT22;23398;50.928;7.084;2023-11-21T10:16:19;15.10;86.80
37560;DHT22;23398;50.928;7.084;2023-11-21T10:18:48;15.20;87.00
37560;DHT22;23398;50.928;7.084;2023-11-21T10:21:18;15.20;86.80
37560;DHT22;23398;50.928;7.084;2023-11-21T10:23:44;15.20;87.60
37560;DHT22;23398;50.928;7.084;2023-11-21T10:26:11;15.20;87.40
37560;DHT22;23398;50.928;7.084;2023-11-21T10:28:57;15.30;87.00
37560;DHT22;23398;50.928;7.084;2023-11-21T10:31:29;15.30;86.60
37560;DHT22;23398;50.928;7.084;2023-11-21T10:34:19;15.40;86.50
37560;DHT22;23398;50.928;7.084;2023-11-21T10:36:44;15.40;85.60
37560;DHT22;23398;50.928;7.084;2023-11-21T10:39:17;15.50;85.20
37560;DHT22;23398;50.928;7.084;2023-11-21T10:41:46;15.50;85.20
37560;DHT22;23398;50.928;7.084;2023-11-21T10:44:17;15.50;85.10
37560;DHT22;23398;50.928;7.084;2023-11-21T10:46:55;15.50;84.90
37560;DHT22;23398;50.928;7.084;2023-11-21T10:49:26;15.60;84.70
37560;DHT22;23398;50.928;7.084;2023-11-21T10:51:53;15.60;84.40
37560;DHT22;23398;50.928;7.084;2023-11-21T10:54:24;15.60;84.70
37560;DHT22;23398;50.928;7.084;2023-11-21T10:56:53;15.70;83.70
37560;DHT22;23398;50.928;7.084;2023-11-21T10:59:22;15.70;84.10
37560;DHT22;23398;50.928;7.084;2023-11-21T11:01:51;15.70;84.40
37560;DHT22;23398;50.928;7.084;2023-11-21T11:04:21;15.70;84.10
37560;DHT22;23398;50.928;7.084;2023-11-21T11:07:08;15.80;83.70
37560;DHT22;23398;50.928;7.084;2023-11-21T11:09:35;15.80;83.40
37560;DHT22;23398;50.928;7.084;2023-11-21T11:12:02;15.80;82.50
37560;DHT22;23398;50.928;7.084;2023-11-21T11:14:29;15.80;82.10
37560;DHT22;23398;50.928;7.084;2023-11-21T11:16:55;15.80;82.00
37560;DHT22;23398;50.928;7.084;2023-11-21T11:19:21;15.80;82.10
37560;DHT22;23398;50.928;7.084;2023-11-21T11:24:53;15.70;81.40
37560;DHT22;23398;50.928;7.084;2023-11-21T11:27:48;15.70;81.40
37560;DHT22;23398;50.928;7.084;2023-11-21T11:33:31;15.70;81.90
37560;DHT22;23398;50.928;7.084;2023-11-21T11:38:37;15.70;82.60
37560;DHT22;23398;50.928;7.084;2023-11-21T11:41:03;15.70;82.70
37560;DHT22;23398;50.928;7.084;2023-11-21T11:43:30;15.70;82.90
37560;DHT22;23398;50.928;7.084;2023-11-21T11:45:58;15.70;82.90
37560;DHT22;23398;50.928;7.084;2023-11-21T11:48:25;15.70;82.50
37560;DHT22;23398;50.928;7.084;2023-11-21T11:51:10;15.80;82.50
37560;DHT22;23398;50.928;7.084;2023-11-21T11:53:44;15.80;82.30
37560;DHT22;23398;50.928;7.084;2023-11-21T11:58:48;15.90;82.70
37560;DHT22;23398;50.928;7.084;2023-11-21T12:01:13;15.90;82.60
37560;DHT22;23398;50.928;7.084;2023-11-21T12:03:39;16.00;81.90
37560;DHT22;23398;50.928;7.084;2023-11-21T12:06:05;16.00;81.50
37560;DHT22;23398;50.928;7.084;2023-11-21T12:08:32;16.10;81.50
37560;DHT22;23398;50.928;7.084;2023-11-21T12:10:58;16.10;80.60
37560;DHT22;23398;50.928;7.084;2023-11-21T12:13:24;16.10;80.00
37560;DHT22;23398;50.928;7.084;2023-11-21T12:15:49;16.10;79.80
37560;DHT22;23398;50.928;7.084;2023-11-21T12:18:15;16.10;79.30
37560;DHT22;23398;50.928;7.084;2023-11-21T12:20:41;16.10;79.10
37560;DHT22;23398;50.928;7.084;2023-11-21T12:23:08;16.10;78.90
37560;DHT22;23398;50.928;7.084;2023-11-21T12:25:35;16.10;78.80
37560;DHT22;23398;50.928;7.084;2023-11-21T12:28:02;16.10;78.90
37560;DHT22;23398;50.928;7.084;2023-11-21T12:30:30;16.00;79.20
37560;DHT22;23398;50.928;7.084;2023-11-21T12:33:01;16.00;79.60
37560;DHT22;23398;50.928;7.084;2023-11-21T12:35:28;16.10;80.10
37560;DHT22;23398;50.928;7.084;2023-11-21T12:37:55;16.10;79.80
37560;DHT22;23398;50.928;7.084;2023-11-21T12:40:24;16.10;80.10
37560;DHT22;23398;50.928;7.084;2023-11-21T12:42:55;16.10;80.50
37560;DHT22;23398;50.928;7.084;2023-11-21T12:47:49;16.30;80.00
37560;DHT22;23398;50.928;7.084;2023-11-21T12:50:18;16.30;79.80
37560;DHT22;23398;50.928;7.084;2023-11-21T12:52:47;16.40;79.90
37560;DHT22;23398;50.928;7.084;2023-11-21T12:55:16;16.40;79.20
37560;DHT22;23398;50.928;7.084;2023-11-21T12:57:44;16.40;78.70
37560;DHT22;23398;50.928;7.084;2023-11-21T13:00:11;16.50;78.20
37560;DHT22;23398;50.928;7.084;2023-11-21T13:02:41;16.50;77.90
37560;DHT22;23398;50.928;7.084;2023-11-21T13:05:08;16.50;77.60
37560;DHT22;23398;50.928;7.084;2023-11-21T13:07:44;16.50;77.60
37560;DHT22;23398;50.928;7.084;2023-11-21T13:10:13;16.50;77.30
37560;DHT22;23398;50.928;7.084;2023-11-21T13:12:46;16.50;76.90
37560;DHT22;23398;50.928;7.084;2023-11-21T13:15:17;16.50;76.60
37560;DHT22;23398;50.928;7.084;2023-11-21T13:17:43;16.50;76.80
37560;DHT22;23398;50.928;7.084;2023-11-21T13:20:11;16.40;76.70
37560;DHT22;23398;50.928;7.084;2023-11-21T13:22:55;16.40;76.70
37560;DHT22;23398;50.928;7.084;2023-11-21T13:25:25;16.40;76.80
37560;DHT22;23398;50.928;7.084;2023-11-21T13:27:54;16.30;76.90
37560;DHT22;23398;50.928;7.084;2023-11-21T13:30:20;16.30;76.80
37560;DHT22;23398;50.928;7.084;2023-11-21T13:32:56;16.20;76.80
37560;DHT22;23398;50.928;7.084;2023-11-21T13:35:23;16.20;76.90
37560;DHT22;23398;50.928;7.084;2023-11-21T13:38:03;16.20;77.00
37560;DHT22;23398;50.928;7.084;2023-11-21T13:40:29;16.10;77.10
37560;DHT22;23398;50.928;7.084;2023-11-21T13:42:55;16.10;77.00
37560;DHT22;23398;50.928;7.084;2023-11-21T13:45:23;16.10;77.20
37560;DHT22;23398;50.928;7.084;2023-11-21T13:47:50;16.00;77.30
37560;DHT22;23398;50.928;7.084;2023-11-21T13:50:25;16.00;77.60
37560;DHT22;23398;50.928;7.084;2023-11-21T13:53:01;16.00;77.30
37560;DHT22;23398;50.928;7.084;2023-11-21T13:55:47;16.00;77.20
37560;DHT22;23398;50.928;7.084;2023-11-21T13:58:14;16.00;77.00
37560;DHT22;23398;50.928;7.084;2023-11-21T14:00:47;16.00;77.00
37560;DHT22;23398;50.928;7.084;2023-11-21T14:03:14;16.10;76.90
37560;DHT22;23398;50.928;7.084;2023-11-21T14:05:47;15.90;76.30
37560;DHT22;23398;50.928;7.084;2023-11-21T14:08:18;15.90;76.20
37560;DHT22;23398;50.928;7.084;2023-11-21T14:10:45;15.90;76.00
37560;DHT22;23398;50.928;7.084;2023-11-21T14:13:16;15.90;75.90
37560;DHT22;23398;50.928;7.084;2023-11-21T14:15:42;15.80;76.00
37560;DHT22;23398;50.928;7.084;2023-11-21T14:18:11;15.80;75.90
37560;DHT22;23398;50.928;7.084;2023-11-21T14:20:40;15.70;76.10
37560;DHT22;23398;50.928;7.084;2023-11-21T14:23:07;15.70;76.40
37560;DHT22;23398;50.928;7.084;2023-11-21T14:25:34;15.70;76.60
37560;DHT22;23398;50.928;7.084;2023-11-21T14:28:00;15.60;76.80
37560;DHT22;23398;50.928;7.084;2023-11-21T14:30:26;15.60;77.00
37560;DHT22;23398;50.928;7.084;2023-11-21T14:32:52;15.60;77.30
37560;DHT22;23398;50.928;7.084;2023-11-21T14:35:18;15.60;77.40
37560;DHT22;23398;50.928;7.084;2023-11-21T14:37:44;15.60;77.40
37560;DHT22;23398;50.928;7.084;2023-11-21T14:40:12;15.50;77.30
37560;DHT22;23398;50.928;7.084;2023-11-21T14:42:37;15.50;77.40
37560;DHT22;23398;50.928;7.084;2023-11-21T14:45:05;15.50;77.50
37560;DHT22;23398;50.928;7.084;2023-11-21T14:47:32;15.50;77.40
37560;DHT22;23398;50.928;7.084;2023-11-21T14:50:00;15.50;77.60
37560;DHT22;23398;50.928;7.084;2023-11-21T14:52:37;15.50;77.50
37560;DHT22;23398;50.928;7.084;2023-11-21T14:55:18;15.40;77.40
37560;DHT22;23398;50.928;7.084;2023-11-21T14:57:57;15.40;77.50
37560;DHT22;23398;50.928;7.084;2023-11-21T15:00:23;15.40;77.90
37560;DHT22;23398;50.928;7.084;2023-11-21T15:02:58;15.30;78.00
37560;DHT22;23398;50.928;7.084;2023-11-21T15:05:24;15.30;78.10
37560;DHT22;23398;50.928;7.084;2023-11-21T15:07:50;15.30;78.20
37560;DHT22;23398;50.928;7.084;2023-11-21T15:10:21;15.30;78.30
37560;DHT22;23398;50.928;7.084;2023-11-21T15:12:54;15.20;78.40
37560;DHT22;23398;50.928;7.084;2023-11-21T15:15:20;15.10;78.50
37560;DHT22;23398;50.928;7.084;2023-11-21T15:17:46;15.10;78.80
37560;DHT22;23398;50.928;7.084;2023-11-21T15:20:13;15.00;79.00
37560;DHT22;23398;50.928;7.084;2023-11-21T15:22:44;15.00;79.20
37560;DHT22;23398;50.928;7.084;2023-11-21T15:25:10;15.00;79.50
37560;DHT22;23398;50.928;7.084;2023-11-21T15:27:36;14.90;79.70
37560;DHT22;23398;50.928;7.084;2023-11-21T15:30:02;14.90;80.00
37560;DHT22;23398;50.928;7.084;2023-11-21T15:32:30;14.90;80.30
37560;DHT22;23398;50.928;7.084;2023-11-21T15:34:56;14.80;80.60
37560;DHT22;23398;50.928;7.084;2023-11-21T15:37:22;14.80;81.10
37560;DHT22;23398;50.928;7.084;2023-11-21T15:39:47;14.80;81.50
37560;DHT22;23398;50.928;7.084;2023-11-21T15:42:13;14.70;81.90
37560;DHT22;23398;50.928;7.084;2023-11-21T15:44:38;14.70;82.30